createdAt,value
2022-08-07T00:01:43.781Z,3.03
2022-08-07T00:04:11.205Z,2.05
2022-08-07T00:06:51.525Z,2.42
2022-08-07T00:09:21.365Z,1.80
2022-08-07T00:11:55.536Z,2.00
2022-08-07T00:14:25.578Z,2.70
2022-08-07T00:16:58.226Z,2.20
2022-08-07T00:19:26.074Z,1.90
2022-08-07T00:22:03.550Z,2.25
2022-08-07T00:24:31.718Z,2.28
2022-08-07T00:27:07.198Z,2.30
2022-08-07T00:29:37.131Z,2.10
2022-08-07T00:32:05.718Z,2.10
2022-08-07T00:34:35.565Z,2.13
2022-08-07T00:37:05.104Z,2.03
2022-08-07T00:39:32.870Z,2.00
2022-08-07T00:42:02.455Z,2.50
2022-08-07T00:44:33.349Z,2.15
2022-08-07T00:47:01.563Z,2.08
2022-08-07T00:50:19.652Z,2.28
2022-08-07T00:52:20.093Z,2.35
2022-08-07T00:54:53.650Z,2.00
2022-08-07T00:57:22.981Z,2.20
2022-08-07T00:59:53.006Z,2.25
2022-08-07T01:02:28.452Z,2.33
2022-08-07T01:04:58.648Z,2.10
2022-08-07T01:07:29.283Z,2.10
2022-08-07T01:10:06.472Z,2.00
2022-08-07T01:12:38.765Z,2.22
2022-08-07T01:15:11.891Z,2.20
2022-08-07T01:17:44.582Z,2.15
2022-08-07T01:20:16.756Z,2.20
2022-08-07T01:23:00.399Z,2.25
2022-08-07T01:25:40.429Z,2.30
2022-08-07T01:28:22.790Z,2.45
2022-08-07T01:30:52.850Z,2.50
2022-08-07T01:33:21.488Z,1.90
2022-08-07T01:35:54.541Z,2.25
2022-08-07T01:38:35.122Z,2.15
2022-08-07T01:41:04.505Z,2.30
2022-08-07T01:43:38.510Z,2.30
2022-08-07T01:46:08.355Z,2.35
2022-08-07T01:48:42.178Z,2.17
2022-08-07T01:52:02.098Z,2.00
2022-08-07T01:54:08.840Z,2.10
2022-08-07T01:56:49.416Z,2.30
2022-08-07T01:59:19.678Z,2.20
2022-08-07T02:02:01.915Z,1.90
2022-08-07T02:04:33.395Z,1.73
2022-08-07T02:07:02.456Z,2.15
2022-08-07T02:09:52.959Z,2.30
2022-08-07T02:12:30.924Z,2.45
2022-08-07T02:14:59.432Z,2.40
2022-08-07T02:17:31.714Z,2.45
2022-08-07T02:20:05.478Z,1.80
2022-08-07T02:22:40.998Z,2.25
2022-08-07T02:25:17.118Z,2.20
2022-08-07T02:27:51.910Z,2.60
2022-08-07T02:30:20.618Z,2.20
2022-08-07T02:33:07.300Z,2.20
2022-08-07T02:36:28.205Z,2.50
2022-08-07T02:38:28.124Z,2.53
2022-08-07T02:41:03.945Z,2.03
2022-08-07T02:43:32.376Z,2.35
2022-08-07T02:46:02.502Z,2.38
2022-08-07T02:48:30.874Z,2.70
2022-08-07T02:51:00.136Z,2.33
2022-08-07T02:53:29.834Z,2.00
2022-08-07T02:56:03.644Z,2.10
2022-08-07T02:58:35.340Z,2.03
2022-08-07T03:01:05.052Z,2.40
2022-08-07T03:03:49.965Z,2.42
2022-08-07T03:06:26.140Z,2.30
2022-08-07T03:09:01.880Z,2.08
2022-08-07T03:11:29.673Z,2.53
2022-08-07T03:14:03.427Z,2.30
2022-08-07T03:16:31.548Z,2.10
2022-08-07T03:18:59.296Z,2.00
2022-08-07T03:21:27.720Z,2.78
2022-08-07T03:24:19.527Z,1.88
2022-08-07T03:26:58.105Z,2.15
2022-08-07T03:29:29.205Z,2.10
2022-08-07T03:31:57.127Z,1.77
2022-08-07T03:34:28.281Z,2.03
2022-08-07T03:36:57.479Z,2.00
2022-08-07T03:39:46.276Z,2.13
2022-08-07T03:42:15.265Z,1.90
2022-08-07T03:44:53.057Z,2.20
2022-08-07T03:47:22.735Z,1.92
2022-08-07T03:49:52.360Z,2.08
2022-08-07T03:52:25.969Z,1.95
2022-08-07T03:54:57.134Z,2.10
2022-08-07T03:59:07.029Z,2.00
2022-08-07T04:00:18.041Z,2.58
2022-08-07T04:02:49.477Z,2.03
2022-08-07T04:05:17.161Z,2.00
2022-08-07T04:07:45.930Z,1.83
2022-08-07T04:10:19.680Z,2.10
2022-08-07T04:12:48.095Z,2.20
2022-08-07T04:15:17.500Z,1.90
2022-08-07T04:18:31.243Z,1.92
2022-08-07T04:20:35.357Z,2.15
2022-08-07T04:23:06.313Z,2.20
2022-08-07T04:25:39.495Z,2.20
2022-08-07T04:28:10.288Z,1.80
2022-08-07T04:30:55.605Z,1.92
2022-08-07T04:33:25.448Z,2.05
2022-08-07T04:35:53.838Z,2.40
2022-08-07T04:38:22.000Z,1.92
2022-08-07T04:40:52.124Z,1.85
2022-08-07T04:44:09.556Z,2.60
2022-08-07T04:46:20.339Z,1.75
2022-08-07T04:49:01.652Z,1.95
2022-08-07T04:51:33.694Z,1.95
2022-08-07T04:54:08.239Z,2.10
2022-08-07T04:58:13.258Z,2.10
2022-08-07T05:00:09.792Z,2.20
2022-08-07T05:02:24.516Z,2.25
2022-08-07T05:04:57.955Z,1.92
2022-08-07T05:07:30.515Z,2.10
2022-08-07T05:10:05.733Z,2.10
2022-08-07T05:12:37.618Z,2.13
2022-08-07T05:15:21.664Z,2.35
2022-08-07T05:17:56.671Z,2.20
2022-08-07T05:20:27.133Z,2.40
2022-08-07T05:22:57.957Z,2.30
2022-08-07T05:25:36.750Z,1.90
2022-08-07T05:28:20.891Z,2.50
2022-08-07T05:30:52.484Z,2.40
2022-08-07T05:33:22.561Z,2.53
2022-08-07T05:35:50.852Z,2.10
2022-08-07T05:39:01.293Z,2.40
2022-08-07T05:41:14.475Z,2.13
2022-08-07T05:44:08.675Z,2.83
2022-08-07T05:46:32.833Z,2.58
2022-08-07T05:49:11.799Z,2.67
2022-08-07T05:51:40.821Z,2.53
2022-08-07T05:54:19.596Z,2.80
2022-08-07T05:56:58.843Z,2.70
2022-08-07T05:59:27.379Z,2.85
2022-08-07T06:01:55.900Z,2.78
2022-08-07T06:04:26.378Z,3.22
2022-08-07T06:07:03.838Z,2.92
2022-08-07T06:09:45.034Z,2.55
2022-08-07T06:12:21.148Z,2.65
2022-08-07T06:15:05.138Z,3.20
2022-08-07T06:17:37.817Z,3.28
2022-08-07T06:20:12.399Z,3.17
2022-08-07T06:23:02.549Z,3.25
2022-08-07T06:25:41.579Z,3.30
2022-08-07T06:28:27.432Z,2.83
2022-08-07T06:30:55.544Z,2.80
2022-08-07T06:33:23.417Z,2.92
2022-08-07T06:36:13.264Z,2.90
2022-08-07T06:38:58.439Z,3.08
2022-08-07T06:42:00.584Z,2.92
2022-08-07T06:44:17.870Z,2.80
2022-08-07T06:46:53.805Z,3.20
2022-08-07T06:49:34.428Z,3.28
2022-08-07T06:52:31.615Z,3.05
2022-08-07T06:55:34.340Z,3.10
2022-08-07T06:57:57.013Z,3.03
2022-08-07T07:00:25.665Z,3.20
2022-08-07T07:02:58.223Z,3.30
2022-08-07T07:06:05.691Z,2.80
2022-08-07T07:08:18.656Z,3.10
2022-08-07T07:10:57.509Z,3.20
2022-08-07T07:13:55.338Z,2.70
2022-08-07T07:16:27.513Z,2.90
2022-08-07T07:19:00.714Z,2.95
2022-08-07T07:22:12.104Z,2.72
2022-08-07T07:24:32.066Z,2.78
2022-08-07T07:27:02.062Z,2.72
2022-08-07T07:29:57.007Z,2.55
2022-08-07T07:32:27.395Z,2.40
2022-08-07T07:34:56.697Z,2.20
2022-08-07T07:37:44.393Z,2.17
2022-08-07T07:40:19.361Z,1.95
2022-08-07T07:42:53.704Z,2.20
2022-08-07T07:46:36.616Z,1.98
2022-08-07T07:48:11.605Z,1.75
2022-08-07T07:51:00.397Z,1.70
2022-08-07T07:53:30.893Z,1.70
2022-08-07T07:56:06.989Z,1.73
2022-08-07T07:58:37.084Z,1.67
2022-08-07T08:02:01.849Z,1.88
2022-08-07T08:04:11.291Z,1.60
2022-08-07T08:06:40.704Z,1.90
2022-08-07T08:09:20.045Z,1.85
2022-08-07T08:12:01.871Z,1.80
2022-08-07T08:14:31.101Z,1.88
2022-08-07T08:18:36.889Z,1.50
2022-08-07T08:20:19.115Z,1.75
2022-08-07T08:22:56.304Z,1.30
2022-08-07T08:25:48.998Z,1.50
2022-08-07T08:28:23.898Z,1.67
2022-08-07T08:31:07.435Z,1.33
2022-08-07T08:33:42.509Z,1.30
2022-08-07T08:36:25.545Z,1.50
2022-08-07T08:38:59.995Z,1.38
2022-08-07T08:41:57.102Z,1.20
2022-08-07T08:44:29.271Z,1.40
2022-08-07T08:47:03.617Z,1.40
2022-08-07T08:49:46.756Z,1.50
2022-08-07T08:52:30.405Z,1.40
2022-08-07T08:55:20.859Z,1.40
2022-08-07T08:58:04.744Z,1.20
2022-08-07T09:00:42.775Z,1.27
2022-08-07T09:03:20.239Z,1.48
2022-08-07T09:05:50.596Z,1.20
2022-08-07T09:08:28.852Z,1.20
2022-08-07T09:11:04.307Z,1.13
2022-08-07T09:13:43.505Z,1.40
2022-08-07T09:16:30.964Z,1.20
2022-08-07T09:19:51.268Z,1.42
2022-08-07T09:24:27.218Z,1.00
2022-08-07T09:25:14.791Z,0.93
2022-08-07T09:28:00.185Z,1.20
2022-08-07T09:30:35.435Z,1.10
2022-08-07T09:33:52.627Z,0.88
2022-08-07T09:36:15.743Z,1.10
2022-08-07T09:38:53.828Z,1.00
2022-08-07T09:41:36.258Z,1.10
2022-08-07T09:44:30.016Z,0.90
2022-08-07T09:47:42.659Z,1.00
2022-08-07T09:50:19.987Z,1.05
2022-08-07T09:52:56.853Z,1.20
2022-08-07T09:55:36.840Z,1.02
2022-08-07T09:58:55.526Z,1.00
2022-08-07T10:01:52.185Z,0.93
2022-08-07T10:04:39.468Z,1.10
2022-08-07T10:07:31.405Z,1.02
2022-08-07T10:10:21.677Z,1.10
2022-08-07T10:13:29.849Z,1.00
2022-08-07T10:16:10.382Z,1.20
2022-08-07T10:19:00.416Z,1.60
2022-08-07T10:22:12.094Z,1.92
2022-08-07T10:24:33.309Z,2.05
2022-08-07T10:27:10.582Z,1.10
2022-08-07T10:29:51.705Z,1.27
2022-08-07T10:32:52.956Z,1.00
2022-08-07T10:35:55.638Z,1.10
2022-08-07T10:38:52.624Z,1.10
2022-08-07T10:42:00.440Z,1.10
2022-08-07T10:45:07.721Z,1.10
2022-08-07T10:47:52.497Z,1.40
2022-08-07T10:50:28.959Z,1.20
2022-08-07T10:53:05.256Z,0.90
2022-08-07T10:55:45.276Z,1.10
2022-08-07T10:58:33.160Z,1.30
2022-08-07T11:01:15.160Z,0.95
2022-08-07T11:03:55.041Z,1.00
2022-08-07T11:06:29.817Z,1.00
2022-08-07T11:09:01.007Z,1.10
2022-08-07T11:11:35.990Z,1.10
2022-08-07T11:14:44.523Z,0.90
2022-08-07T11:17:01.912Z,1.10
2022-08-07T11:19:32.100Z,0.85
2022-08-07T11:22:07.105Z,1.00
2022-08-07T11:24:51.864Z,1.08
2022-08-07T11:27:33.574Z,1.00
2022-08-07T11:30:18.862Z,1.42
2022-08-07T11:32:49.697Z,1.13
2022-08-07T11:35:25.273Z,0.90
2022-08-07T11:38:12.832Z,1.08
2022-08-07T11:41:09.183Z,1.13
2022-08-07T11:44:18.725Z,1.17
2022-08-07T11:47:04.144Z,1.05
2022-08-07T11:50:31.691Z,1.30
2022-08-07T11:53:13.471Z,1.25
2022-08-07T11:56:25.167Z,1.10
2022-08-07T11:58:59.823Z,1.10
2022-08-07T12:01:59.021Z,1.20
2022-08-07T12:04:43.050Z,1.20
2022-08-07T12:07:27.144Z,1.45
2022-08-07T12:10:02.175Z,1.30
2022-08-07T12:12:37.686Z,1.05
2022-08-07T12:15:35.940Z,1.25
2022-08-07T12:18:03.147Z,1.10
2022-08-07T12:20:36.930Z,1.10
2022-08-07T12:23:15.998Z,1.05
2022-08-07T12:26:21.572Z,1.20
2022-08-07T12:28:49.856Z,1.10
2022-08-07T12:31:25.059Z,1.10
2022-08-07T12:34:11.040Z,1.30
2022-08-07T12:36:39.707Z,1.30
2022-08-07T12:39:44.388Z,1.30
2022-08-07T12:42:00.359Z,1.10
2022-08-07T12:44:30.747Z,1.25
2022-08-07T12:47:06.443Z,1.23
2022-08-07T12:49:44.390Z,1.10
2022-08-07T12:52:20.555Z,1.10
2022-08-07T12:54:55.042Z,1.30
2022-08-07T12:57:26.302Z,1.50
2022-08-07T13:00:16.426Z,1.10
2022-08-07T13:03:00.897Z,1.15
2022-08-07T13:06:04.113Z,1.10
2022-08-07T13:08:38.567Z,1.23
2022-08-07T13:11:26.026Z,1.00
2022-08-07T13:13:58.941Z,1.20
2022-08-07T13:16:30.510Z,1.00
2022-08-07T13:19:02.016Z,1.10
2022-08-07T13:21:51.164Z,1.20
2022-08-07T13:24:21.381Z,1.15
2022-08-07T13:26:58.613Z,1.20
2022-08-07T13:29:35.064Z,1.00
2022-08-07T13:32:23.716Z,1.00
2022-08-07T13:34:55.276Z,1.00
2022-08-07T13:37:28.801Z,1.10
2022-08-07T13:40:35.529Z,1.30
2022-08-07T13:43:02.205Z,1.30
2022-08-07T13:46:11.104Z,1.20
2022-08-07T13:48:33.966Z,1.15
2022-08-07T13:51:26.880Z,1.17
2022-08-07T13:54:00.181Z,1.20
2022-08-07T13:56:36.389Z,1.30
2022-08-07T13:59:12.595Z,1.50
2022-08-07T14:01:51.431Z,1.40
2022-08-07T14:04:35.660Z,1.33
2022-08-07T14:07:09.439Z,1.20
2022-08-07T14:10:02.065Z,1.20
2022-08-07T14:12:31.966Z,1.20
2022-08-07T14:15:07.169Z,1.30
2022-08-07T14:18:16.121Z,1.35
2022-08-07T14:20:41.939Z,1.30
2022-08-07T14:23:31.610Z,1.20
2022-08-07T14:26:07.693Z,1.42
2022-08-07T14:28:55.905Z,1.17
2022-08-07T14:31:42.937Z,1.20
2022-08-07T14:34:19.937Z,1.30
2022-08-07T14:36:56.285Z,1.10
2022-08-07T14:40:16.779Z,1.23
2022-08-07T14:42:20.691Z,1.55
2022-08-07T14:44:52.308Z,1.20
2022-08-07T14:47:23.147Z,1.27
2022-08-07T14:49:56.958Z,1.20
2022-08-07T14:52:42.028Z,1.40
2022-08-07T14:55:11.103Z,1.30
2022-08-07T15:00:35.553Z,1.27
2022-08-07T15:03:19.324Z,1.30
2022-08-07T15:05:54.137Z,1.33
2022-08-07T15:08:32.531Z,1.40
2022-08-07T15:11:02.019Z,1.40
2022-08-07T15:13:35.918Z,1.30
2022-08-07T15:18:57.132Z,1.50
2022-08-07T15:27:08.583Z,1.48
2022-08-07T15:30:10.162Z,1.30
2022-08-07T15:32:39.781Z,1.27
2022-08-07T15:35:17.345Z,1.55
2022-08-07T15:38:18.234Z,1.50
2022-08-07T15:43:52.940Z,1.20
2022-08-07T15:49:13.141Z,1.55
2022-08-07T15:54:26.707Z,1.30
2022-08-07T15:56:58.957Z,1.40
2022-08-07T15:59:39.040Z,1.30
2022-08-07T16:02:09.039Z,1.40
2022-08-07T16:04:37.330Z,1.45
2022-08-07T16:08:30.206Z,1.48
2022-08-07T16:10:02.968Z,1.48
2022-08-07T16:12:34.076Z,1.40
2022-08-07T16:15:42.148Z,1.20
2022-08-07T16:18:09.384Z,1.35
2022-08-07T16:20:55.204Z,1.60
2022-08-07T16:23:53.689Z,1.20
2022-08-07T16:26:33.811Z,1.50
2022-08-07T16:30:09.135Z,1.60
2022-08-07T16:31:58.989Z,1.40
2022-08-07T16:34:33.854Z,1.55
2022-08-07T16:38:02.745Z,1.65
2022-08-07T16:40:36.307Z,1.27
2022-08-07T16:44:02.567Z,1.40
2022-08-07T16:50:27.147Z,1.30
2022-08-07T16:52:49.242Z,1.60
2022-08-07T16:55:15.040Z,1.40
2022-08-07T16:58:02.126Z,1.48
2022-08-07T17:00:39.044Z,1.85
2022-08-07T17:03:18.631Z,1.48
2022-08-07T17:06:28.357Z,1.30
2022-08-07T17:09:09.626Z,1.90
2022-08-07T17:12:04.757Z,1.50
2022-08-07T17:14:35.347Z,2.13
2022-08-07T17:17:07.279Z,1.40
2022-08-07T17:20:02.543Z,1.20
2022-08-07T17:22:30.047Z,1.10
2022-08-07T17:25:45.734Z,1.40
2022-08-07T17:28:13.126Z,1.30
2022-08-07T17:30:58.234Z,1.50
2022-08-07T17:34:09.067Z,1.20
2022-08-07T17:36:20.780Z,1.50
2022-08-07T17:38:51.736Z,1.35
2022-08-07T17:42:02.085Z,1.42
2022-08-07T17:44:16.371Z,1.30
2022-08-07T17:47:00.801Z,1.13
2022-08-07T17:49:39.365Z,1.38
2022-08-07T17:52:14.197Z,1.40
2022-08-07T17:54:53.373Z,1.40
2022-08-07T17:57:24.289Z,1.35
2022-08-07T17:59:53.458Z,1.23
2022-08-07T18:02:25.374Z,1.10
2022-08-07T18:05:01.320Z,1.30
2022-08-07T18:08:01.067Z,1.30
2022-08-07T18:10:34.261Z,1.30
2022-08-07T18:13:10.981Z,1.20
2022-08-07T18:15:51.841Z,1.10
2022-08-07T18:18:46.072Z,1.30
2022-08-07T18:21:41.443Z,1.70
2022-08-07T18:24:07.353Z,1.70
2022-08-07T18:26:45.873Z,1.55
2022-08-07T18:30:06.279Z,1.27
2022-08-07T18:32:09.860Z,1.10
2022-08-07T18:35:00.636Z,1.20
2022-08-07T18:38:57.072Z,1.20
2022-08-07T18:40:42.393Z,1.25
2022-08-07T18:43:37.066Z,2.20
2022-08-07T18:46:25.081Z,1.50
2022-08-07T18:50:31.859Z,1.10
2022-08-07T18:52:25.399Z,1.20
2022-08-07T18:55:00.360Z,1.40
2022-08-07T18:57:58.362Z,1.30
2022-08-07T19:00:36.707Z,1.42
2022-08-07T19:03:11.882Z,1.27
2022-08-07T19:06:03.921Z,1.33
2022-08-07T19:08:42.467Z,1.48
2022-08-07T19:11:34.806Z,1.23
2022-08-07T19:14:17.383Z,1.40
2022-08-07T19:17:06.388Z,1.20
2022-08-07T19:19:42.346Z,1.35
2022-08-07T19:22:18.666Z,1.42
2022-08-07T19:25:05.778Z,1.90
2022-08-07T19:28:57.061Z,1.50
2022-08-07T19:30:57.375Z,1.10
2022-08-07T19:33:16.009Z,1.15
2022-08-07T19:35:44.739Z,1.25
2022-08-07T19:38:17.384Z,1.38
2022-08-07T19:40:49.626Z,1.20
2022-08-07T19:43:21.842Z,1.40
2022-08-07T19:46:10.708Z,1.73
2022-08-07T19:48:42.126Z,1.25
2022-08-07T19:51:19.192Z,1.10
2022-08-07T19:54:35.609Z,1.38
2022-08-07T19:56:58.768Z,1.40
2022-08-07T19:59:41.294Z,1.25
2022-08-07T20:02:18.928Z,1.20
2022-08-07T20:04:48.965Z,1.30
2022-08-07T20:07:23.712Z,1.20
2022-08-07T20:10:35.179Z,1.30
2022-08-07T20:12:43.976Z,1.20
2022-08-07T20:15:21.994Z,1.30
2022-08-07T20:18:01.542Z,1.40
2022-08-07T20:20:32.085Z,1.40
2022-08-07T20:23:01.999Z,1.30
2022-08-07T20:25:50.943Z,1.25
2022-08-07T20:28:29.611Z,1.23
2022-08-07T20:31:00.223Z,1.42
2022-08-07T20:33:38.140Z,2.30
2022-08-07T20:36:07.649Z,1.30
2022-08-07T20:38:53.698Z,1.08
2022-08-07T20:41:28.411Z,1.40
2022-08-07T20:44:02.868Z,1.35
2022-08-07T20:46:35.845Z,1.73
2022-08-07T20:49:58.050Z,1.50
2022-08-07T20:52:00.556Z,1.90
2022-08-07T20:54:29.679Z,1.23
2022-08-07T20:57:00.924Z,1.25
2022-08-07T21:00:06.763Z,1.40
2022-08-07T21:02:39.847Z,1.30
2022-08-07T21:05:16.118Z,1.48
2022-08-07T21:07:49.612Z,1.30
2022-08-07T21:10:29.709Z,1.25
2022-08-07T21:13:00.568Z,1.63
2022-08-07T21:15:48.140Z,1.13
2022-08-07T21:18:29.489Z,1.38
2022-08-07T21:21:01.710Z,1.65
2022-08-07T21:23:35.630Z,1.58
2022-08-07T21:26:21.145Z,1.70
2022-08-07T21:28:53.068Z,1.70
2022-08-07T21:31:49.158Z,1.60
2022-08-07T21:34:16.442Z,1.70
2022-08-07T21:36:49.994Z,1.63
2022-08-07T21:39:47.934Z,1.70
2022-08-07T21:42:42.543Z,2.03
2022-08-07T21:46:08.583Z,1.50
2022-08-07T21:48:07.643Z,1.75
2022-08-07T21:51:00.100Z,1.52
2022-08-07T21:53:32.245Z,1.88
2022-08-07T21:56:16.920Z,1.90
2022-08-07T21:58:59.893Z,2.00
2022-08-07T22:02:07.630Z,1.85
2022-08-07T22:04:24.933Z,1.65
2022-08-07T22:06:58.947Z,1.77
2022-08-07T22:09:34.832Z,1.60
2022-08-07T22:12:17.609Z,1.80
2022-08-07T22:15:00.057Z,1.70
2022-08-07T22:17:35.962Z,1.60
2022-08-07T22:20:08.715Z,1.55
2022-08-07T22:22:56.077Z,1.48
2022-08-07T22:25:27.875Z,1.70
2022-08-07T22:28:31.159Z,1.40
2022-08-07T22:30:58.155Z,1.60
2022-08-07T22:33:52.620Z,1.40
2022-08-07T22:36:20.657Z,1.60
2022-08-07T22:38:52.597Z,1.50
2022-08-07T22:41:29.406Z,1.35
2022-08-07T22:44:13.589Z,1.70
2022-08-07T22:47:03.345Z,1.60
2022-08-07T22:49:42.815Z,1.60
2022-08-07T22:52:39.686Z,2.00
2022-08-07T22:55:29.963Z,1.80
2022-08-07T22:58:12.946Z,1.75
2022-08-07T23:00:46.918Z,1.60
2022-08-07T23:03:31.439Z,1.70
2022-08-07T23:06:28.619Z,1.50
2022-08-07T23:10:04.435Z,1.70
2022-08-07T23:11:59.681Z,1.70
2022-08-07T23:14:34.018Z,1.70
2022-08-07T23:17:24.206Z,1.50
2022-08-07T23:20:18.520Z,2.05
2022-08-07T23:22:52.269Z,1.55
2022-08-07T23:25:28.471Z,1.70
2022-08-07T23:28:21.281Z,1.40
2022-08-07T23:31:11.662Z,1.60
2022-08-07T23:34:36.191Z,1.85
2022-08-07T23:37:17.711Z,1.42
2022-08-07T23:39:41.324Z,1.48
2022-08-07T23:42:15.696Z,1.75
2022-08-07T23:45:03.780Z,1.60
2022-08-07T23:47:58.935Z,1.90
2022-08-07T23:50:36.719Z,1.83
2022-08-07T23:53:15.461Z,1.40
2022-08-07T23:55:53.929Z,1.65
2022-08-07T23:58:26.283Z,1.60
